Portada
METAR-TAF:

METAR-TAF

Aeroports :

Aeroport de Badajoz

Badajoz, Espanya

latitud: 38-53N, longitud: 006-49W, altitud: 185 m

Observació

L'informe es va fer fa 15 minuts, a les 17:00 UTC
Vent 6 kt del Est/Nord-Est, variant entre Nord i Est
Temperatura 37°C
Humitat 17%
Pressió 1016 hPa
Visibilitat 10 km o més
sense núvols per sota de 1500 mi sense presència de cumulonimbus.

METAR: LEBZ 181700Z 06006KT 010V090 CAVOK 37/08 Q1016

Hora: 19:15 (17:15 UTC)

Pronòstic

L'informe es va fer fa 6 hores i 15 minuts, a les 11:00 UTC
Pronòstic vàlid del 18 a les 12 UTC al 19 a les 12 UTC
Vent 9 kt del Est
Visibilitat 10 km o més
sense núvols per sota de 1500 mi sense presència de cumulonimbus.
Evolucionant progressivament
l' 18 a les 19 UTC al 18 a les 22 UTC
Vent 10 kt del Sud-Oest
Evolucionant progressivament
l' 19 a les 03 UTC al 19 a les 06 UTC
Vent 3 kt amb direcció variable

TAF: LEBZ 181100Z 1812/1912 08009KT CAVOK TX39/1816Z TN19/1906Z BECMG 1819/1822 23010KT BECMG 1903/1906 VRB03KT

Observacions i pronòstics meteorològics de més de 4000 aeroports (METAR i TAF).

Les estacions disponibles són els punts grocs i vermells al mapa.

Posi el ratolí al punt desitjat per veure el nom de l'estació.

Feu clic per veure les observacions i els pronòstics meteorològics.

Per canviar el mapa: feu clic els botons verds amb una creu de color negre per apropar; al botó verd amb un guió per allunyar la imatge; o en les fletxes verdes per a mapes adjacents.


METAR-TAF: